Sheridan, WY

8:38 AM MST on March 04, 2015 (GMT -0700)
KWYSHERI2 | Change Station
CLOSE
Current Station
Personal Weather Station
Location: Sheridan, WY
Elevation: 3828 ft
Nearby Weather Stations

Elev 3828 ft 44.81 °N, 106.98 °W | Updated 6 minutes ago

Overcast
Overcast
8.8 °F
Feels Like 9 °F
N
0.0
Wind Variable Wind from NW
Gusts 0.0 mph

Today
High -- | Low -- °F
--% Chance of Precip.
Yesterday
High -- | Low -- °F
Precip. -- in
6:40 AM 5:59 PM
Waxing Gibbous, 99% visible
Pressure 30.18 in
Visibility 7.0 miles
Clouds Mostly Cloudy 2000 ft
Mostly Cloudy 3000 ft
Overcast 4800 ft
Windchill 9 °F
Dew Point 1 °F
Humidity 70%
Rainfall 0.00 in
Snow Depth Not available.
UV 0 out of 12
Pollen .40 out of 12
Air Quality Not available.
Flu Activity Not available.
SPECI KSHR 041523Z AUTO 18005KT 7SM BKN020 BKN030 OVC048 M15/M18 A3018 RMK AO2 T11501178

More Conditions Fewer Conditions

Pressure 30.18 in
Visibility 7.0 miles
Clouds Mostly Cloudy 2000 ft
Mostly Cloudy 3000 ft
Overcast 4800 ft
Windchill 9 °F
Dew Point 1 °F
Humidity 70%
Rainfall 0.00 in
Snow Depth Not available.
UV 0 out of 12
Pollen .40 out of 12
Air Quality Not available.
Flu Activity Not available.
SPECI KSHR 041523Z AUTO 18005KT 7SM BKN020 BKN030 OVC048 M15/M18 A3018 RMK AO2 T11501178

More Conditions Fewer Conditions

10-Day Weather Forecast

Almanac

Astronomy

Mar. 04, 2015 Rise Set
Actual Time
Civil Twilight
Nautical Twilight
Astronomical Twilight
Moon
Length of Visible Light
Length of Day
Tomorrow will be .
, % of the Moon is Illuminated

Today's Extremes

State Highs State Lows

Community

WunderPhotos

Upload Photos

1,802,490 photos uploaded!

WunderBlogs® & News

Nearby

Air Quality

  Air Quality AQ Index Pollutant
Not available.

Snow Depth

Station Depth Elevation

Earthquake Activity

City Distance Mag. Time & Date
Minimum magnitude displayed is 2.5.

Coastal Water Temperatures

Place Temperature

Nearby Weather Stations